createdAt,value
2022-10-15T00:00:39.238Z,15.08
2022-10-15T00:03:06.082Z,15.06
2022-10-15T00:05:32.846Z,15.02
2022-10-15T00:07:59.494Z,15.00
2022-10-15T00:10:26.587Z,15.05
2022-10-15T00:12:53.533Z,14.99
2022-10-15T00:15:20.353Z,14.96
2022-10-15T00:17:46.950Z,14.90
2022-10-15T00:20:13.634Z,14.89
2022-10-15T00:22:40.353Z,14.89
2022-10-15T00:25:07.519Z,14.95
2022-10-15T00:27:35.240Z,15.07
2022-10-15T00:30:03.244Z,15.09
2022-10-15T00:32:31.152Z,15.22
2022-10-15T00:34:58.162Z,15.51
2022-10-15T00:37:25.194Z,15.57
2022-10-15T00:39:51.837Z,15.52
2022-10-15T00:42:18.456Z,15.45
2022-10-15T00:44:44.964Z,15.51
2022-10-15T00:47:17.605Z,15.51
2022-10-15T00:49:51.402Z,15.44
2022-10-15T00:52:26.168Z,15.48
2022-10-15T00:54:59.679Z,15.41
2022-10-15T00:57:27.499Z,15.36
2022-10-15T00:59:58.687Z,15.30
2022-10-15T01:02:25.946Z,15.36
2022-10-15T01:04:53.698Z,15.34
2022-10-15T01:07:20.373Z,15.24
2022-10-15T01:09:47.489Z,15.20
2022-10-15T01:12:39.236Z,15.19
2022-10-15T01:15:31.945Z,15.17
2022-10-15T01:18:14.390Z,15.12
2022-10-15T01:21:09.890Z,14.99
2022-10-15T01:23:54.970Z,14.93
2022-10-15T01:26:30.733Z,15.03
2022-10-15T01:29:23.388Z,15.04
2022-10-15T01:32:09.814Z,15.03
2022-10-15T01:34:59.225Z,15.16
2022-10-15T01:37:54.994Z,15.07
2022-10-15T01:40:30.882Z,15.04
2022-10-15T01:42:59.339Z,14.95
2022-10-15T01:45:37.127Z,14.93
2022-10-15T01:48:08.421Z,14.93
2022-10-15T01:50:38.744Z,14.91
2022-10-15T01:53:07.966Z,14.89
2022-10-15T01:55:37.731Z,14.83
2022-10-15T01:58:06.287Z,14.81
2022-10-15T02:00:33.213Z,14.90
2022-10-15T02:03:02.665Z,14.91
2022-10-15T02:05:35.345Z,15.00
2022-10-15T02:08:23.030Z,15.04
2022-10-15T02:11:03.579Z,15.19
2022-10-15T02:13:51.363Z,15.21
2022-10-15T02:16:53.453Z,15.20
2022-10-15T02:20:14.402Z,15.27
2022-10-15T02:22:55.051Z,15.25
2022-10-15T02:25:25.091Z,15.20
2022-10-15T02:27:57.954Z,15.17
2022-10-15T02:30:26.449Z,15.27
2022-10-15T02:32:58.487Z,15.30
2022-10-15T02:35:27.444Z,15.33
2022-10-15T02:37:57.421Z,15.41
2022-10-15T02:40:28.186Z,15.40
2022-10-15T02:42:56.243Z,15.48
2022-10-15T02:45:22.941Z,15.43
2022-10-15T02:47:49.542Z,15.39
2022-10-15T02:50:16.196Z,15.39
2022-10-15T02:52:43.027Z,15.42
2022-10-15T02:55:09.882Z,15.49
2022-10-15T02:57:36.451Z,15.49
2022-10-15T03:00:04.939Z,15.50
2022-10-15T03:02:31.534Z,15.55
2022-10-15T03:04:58.284Z,15.52
2022-10-15T03:07:25.218Z,15.48
2022-10-15T03:09:52.137Z,15.48
2022-10-15T03:12:20.886Z,15.43
2022-10-15T03:14:50.052Z,15.47
2022-10-15T03:17:16.629Z,15.43
2022-10-15T03:19:43.567Z,15.43
2022-10-15T03:22:10.165Z,15.41
2022-10-15T03:24:36.800Z,15.40
2022-10-15T03:27:03.611Z,15.45
2022-10-15T03:29:30.239Z,15.45
2022-10-15T03:31:57.002Z,15.45
2022-10-15T03:34:23.663Z,15.45
2022-10-15T03:36:50.347Z,15.43
2022-10-15T03:39:17.018Z,15.44
2022-10-15T03:44:11.557Z,15.43
2022-10-15T03:46:38.300Z,15.29
2022-10-15T03:49:05.424Z,15.36
2022-10-15T03:51:32.028Z,15.37
2022-10-15T03:53:58.861Z,15.36
2022-10-15T03:56:25.511Z,15.36
2022-10-15T03:58:52.126Z,15.44
2022-10-15T04:01:19.246Z,15.41
2022-10-15T04:03:46.379Z,15.34
2022-10-15T04:06:13.255Z,15.26
2022-10-15T04:08:40.137Z,15.29
2022-10-15T04:11:06.927Z,15.20
2022-10-15T04:13:33.603Z,15.18
2022-10-15T04:16:00.302Z,15.12
2022-10-15T04:18:27.090Z,15.01
2022-10-15T04:20:53.765Z,15.03
2022-10-15T04:23:20.539Z,15.01
2022-10-15T04:25:47.265Z,14.91
2022-10-15T04:28:13.921Z,14.89
2022-10-15T04:30:40.622Z,14.92
2022-10-15T04:33:07.468Z,14.80
2022-10-15T04:35:35.099Z,14.76
2022-10-15T04:38:02.513Z,14.71
2022-10-15T04:40:29.216Z,14.75
2022-10-15T04:42:55.843Z,14.70
2022-10-15T04:47:49.273Z,14.60
2022-10-15T04:50:16.056Z,14.51
2022-10-15T04:52:43.035Z,14.45
2022-10-15T04:55:10.734Z,14.47
2022-10-15T04:57:37.371Z,14.46
2022-10-15T05:00:04.636Z,14.44
2022-10-15T05:02:32.975Z,14.40
2022-10-15T05:04:59.816Z,14.34
2022-10-15T05:07:27.094Z,14.44
2022-10-15T05:09:53.933Z,14.33
2022-10-15T05:12:20.780Z,14.35
2022-10-15T05:14:47.393Z,14.31
2022-10-15T05:17:14.063Z,14.24
2022-10-15T05:19:40.595Z,14.16
2022-10-15T05:22:07.173Z,14.12
2022-10-15T05:24:33.843Z,14.12
2022-10-15T05:27:02.946Z,14.14
2022-10-15T05:29:30.240Z,14.13
2022-10-15T05:31:56.948Z,14.07
2022-10-15T05:34:24.741Z,14.18
2022-10-15T05:36:54.612Z,14.06
2022-10-15T05:39:21.476Z,14.08
2022-10-15T05:41:48.120Z,14.11
2022-10-15T05:44:15.383Z,14.11
2022-10-15T05:46:42.592Z,14.07
2022-10-15T05:49:09.414Z,14.13
2022-10-15T05:51:36.032Z,14.15
2022-10-15T05:54:02.745Z,14.18
2022-10-15T05:56:29.583Z,14.20
2022-10-15T05:58:59.178Z,14.35
2022-10-15T06:01:25.930Z,14.40
2022-10-15T06:03:52.515Z,14.49
2022-10-15T06:06:21.733Z,14.67
2022-10-15T06:08:49.747Z,14.74
2022-10-15T06:11:17.521Z,14.81
2022-10-15T06:13:45.089Z,14.89
2022-10-15T06:16:15.536Z,14.96
2022-10-15T06:18:45.082Z,14.99
2022-10-15T06:21:12.753Z,15.12
2022-10-15T06:23:39.506Z,15.18
2022-10-15T06:26:08.631Z,15.43
2022-10-15T06:28:36.485Z,15.53
2022-10-15T06:31:03.925Z,15.75
2022-10-15T06:33:31.386Z,15.84
2022-10-15T06:36:05.999Z,15.92
2022-10-15T06:38:33.269Z,16.04
2022-10-15T06:41:00.314Z,16.01
2022-10-15T06:43:29.833Z,15.84
2022-10-15T06:46:00.370Z,15.96
2022-10-15T06:48:27.610Z,15.97
2022-10-15T06:50:54.205Z,16.32
2022-10-15T06:53:22.468Z,16.71
2022-10-15T06:55:49.123Z,17.07
2022-10-15T06:58:15.721Z,17.25
2022-10-15T07:00:42.323Z,17.85
2022-10-15T07:03:08.882Z,18.37
2022-10-15T07:05:35.775Z,18.77
2022-10-15T07:08:02.373Z,19.09
2022-10-15T07:10:29.075Z,19.47
2022-10-15T07:12:55.683Z,19.81
2022-10-15T07:15:22.652Z,20.25
2022-10-15T07:17:56.549Z,20.42
2022-10-15T07:20:24.735Z,20.27
2022-10-15T07:22:55.844Z,20.74
2022-10-15T07:25:22.406Z,21.12
2022-10-15T07:27:49.112Z,20.78
2022-10-15T07:30:16.031Z,21.08
2022-10-15T07:32:45.561Z,20.76
2022-10-15T07:35:13.261Z,20.51
2022-10-15T07:37:40.313Z,20.04
2022-10-15T07:40:07.498Z,20.08
2022-10-15T07:42:34.013Z,20.15
2022-10-15T07:45:00.546Z,20.82
2022-10-15T07:47:27.224Z,21.24
2022-10-15T07:49:53.816Z,21.40
2022-10-15T07:52:20.391Z,21.54
2022-10-15T07:54:47.105Z,21.47
2022-10-15T07:57:13.628Z,21.17
2022-10-15T07:59:40.162Z,20.87
2022-10-15T08:02:06.965Z,20.91
2022-10-15T08:04:35.088Z,21.56
2022-10-15T08:07:01.966Z,22.00
2022-10-15T08:09:28.554Z,21.60
2022-10-15T08:11:55.322Z,22.37
2022-10-15T08:14:21.836Z,22.47
2022-10-15T08:16:48.438Z,22.84
2022-10-15T08:19:17.613Z,23.25
2022-10-15T08:21:47.555Z,23.41
2022-10-15T08:24:14.305Z,22.63
2022-10-15T08:26:40.815Z,22.58
2022-10-15T08:29:07.471Z,22.45
2022-10-15T08:31:34.226Z,22.20
2022-10-15T08:34:01.580Z,21.90
2022-10-15T08:36:28.959Z,22.24
2022-10-15T08:38:55.541Z,22.06
2022-10-15T08:41:34.753Z,21.86
2022-10-15T08:44:02.007Z,21.55
2022-10-15T08:46:38.329Z,21.36
2022-10-15T08:49:07.075Z,21.80
2022-10-15T08:51:46.671Z,21.93
2022-10-15T08:54:18.742Z,22.29
2022-10-15T08:56:48.888Z,23.74
2022-10-15T08:59:31.688Z,24.59
2022-10-15T09:02:10.308Z,24.82
2022-10-15T09:04:56.749Z,23.85
2022-10-15T09:07:36.604Z,23.69
2022-10-15T09:10:34.066Z,23.56
2022-10-15T09:13:13.877Z,23.52
2022-10-15T09:15:53.853Z,22.97
2022-10-15T09:18:24.406Z,22.70
2022-10-15T09:20:52.147Z,22.93
2022-10-15T09:23:25.640Z,23.27
2022-10-15T09:26:13.168Z,22.98
2022-10-15T09:28:50.078Z,22.92
2022-10-15T09:31:21.498Z,22.92
2022-10-15T09:34:01.392Z,23.02
2022-10-15T09:36:36.726Z,23.15
2022-10-15T09:39:46.980Z,23.22
2022-10-15T09:42:36.011Z,23.40
2022-10-15T09:45:05.978Z,23.65
2022-10-15T09:47:35.826Z,23.63
2022-10-15T09:50:05.680Z,23.68
2022-10-15T09:52:59.808Z,23.80
2022-10-15T09:55:53.849Z,24.35
2022-10-15T09:58:23.378Z,25.00
2022-10-15T10:01:01.272Z,25.19
2022-10-15T10:03:35.435Z,26.02
2022-10-15T10:06:06.853Z,26.60
2022-10-15T10:09:11.130Z,27.05
2022-10-15T10:11:50.537Z,27.60
2022-10-15T10:14:31.264Z,27.10
2022-10-15T10:17:06.287Z,26.49
2022-10-15T10:19:32.853Z,26.73
2022-10-15T10:22:41.610Z,26.98
2022-10-15T10:25:27.517Z,26.66
2022-10-15T10:27:55.788Z,26.69
2022-10-15T10:30:23.167Z,26.68
2022-10-15T10:32:56.031Z,26.89
2022-10-15T10:35:26.213Z,26.22
2022-10-15T10:37:53.118Z,26.81
2022-10-15T10:40:28.565Z,26.68
2022-10-15T10:43:19.155Z,26.58
2022-10-15T10:46:06.583Z,26.09
2022-10-15T10:48:42.795Z,25.77
2022-10-15T10:51:13.053Z,25.27
2022-10-15T10:54:00.029Z,25.10
2022-10-15T10:56:38.427Z,25.08
2022-10-15T10:59:16.332Z,24.94
2022-10-15T11:01:42.994Z,24.87
2022-10-15T11:04:23.179Z,24.84
2022-10-15T11:06:52.398Z,25.08
2022-10-15T11:09:51.025Z,25.30
2022-10-15T11:12:44.329Z,25.47
2022-10-15T11:15:33.496Z,25.27
2022-10-15T11:18:14.946Z,25.47
2022-10-15T11:21:19.582Z,25.67
2022-10-15T11:23:58.726Z,25.77
2022-10-15T11:26:37.569Z,25.79
2022-10-15T11:29:58.504Z,25.90
2022-10-15T11:33:06.785Z,25.76
2022-10-15T11:36:04.855Z,25.56
2022-10-15T11:39:13.475Z,25.27
2022-10-15T11:41:51.813Z,24.92
2022-10-15T11:44:35.766Z,24.84
2022-10-15T11:47:20.538Z,24.73
2022-10-15T11:49:59.131Z,24.72
2022-10-15T11:52:53.667Z,24.55
2022-10-15T11:55:41.152Z,24.46
2022-10-15T11:58:28.758Z,24.45
2022-10-15T12:01:03.942Z,24.50
2022-10-15T12:03:39.199Z,24.26
2022-10-15T12:06:14.172Z,24.05
2022-10-15T12:08:44.410Z,23.91
2022-10-15T12:11:45.298Z,23.82
2022-10-15T12:14:20.030Z,23.79
2022-10-15T12:17:05.099Z,23.71
2022-10-15T12:19:41.938Z,23.70
2022-10-15T12:22:14.290Z,23.75
2022-10-15T12:24:51.864Z,23.77
2022-10-15T12:27:26.550Z,23.85
2022-10-15T12:30:18.426Z,23.74
2022-10-15T12:32:49.157Z,23.70
2022-10-15T12:35:15.764Z,23.82
2022-10-15T12:37:44.792Z,23.85
2022-10-15T12:40:23.476Z,23.99
2022-10-15T12:42:53.911Z,24.12
2022-10-15T12:45:35.809Z,24.12
2022-10-15T12:48:05.673Z,24.28
2022-10-15T12:50:34.883Z,24.27
2022-10-15T12:53:32.705Z,24.34
2022-10-15T12:56:08.490Z,24.24
2022-10-15T12:58:39.967Z,24.21
2022-10-15T13:01:44.329Z,24.25
2022-10-15T13:04:11.930Z,24.25
2022-10-15T13:06:40.112Z,24.13
2022-10-15T13:09:09.587Z,24.23
2022-10-15T13:11:38.251Z,24.23
2022-10-15T13:14:20.651Z,24.33
2022-10-15T13:16:48.797Z,24.33
2022-10-15T13:19:25.171Z,24.46
2022-10-15T13:22:00.764Z,24.34
2022-10-15T13:24:29.421Z,24.27
2022-10-15T13:26:57.664Z,24.15
2022-10-15T13:29:25.968Z,24.00
2022-10-15T13:34:38.942Z,23.75
2022-10-15T13:37:05.456Z,23.67
2022-10-15T13:39:39.990Z,23.46
2022-10-15T13:42:24.406Z,23.39
2022-10-15T13:45:04.485Z,23.25
2022-10-15T13:47:40.101Z,23.18
2022-10-15T13:50:26.824Z,23.20
2022-10-15T13:53:17.783Z,23.16
2022-10-15T13:55:47.239Z,23.19
2022-10-15T13:58:24.886Z,23.18
2022-10-15T14:00:59.962Z,23.19
2022-10-15T14:03:33.729Z,23.27
2022-10-15T14:06:15.173Z,23.40
2022-10-15T14:08:41.721Z,23.41
2022-10-15T14:11:12.810Z,23.44
2022-10-15T14:13:51.298Z,23.48
2022-10-15T14:16:35.615Z,23.49
2022-10-15T14:19:05.068Z,23.54
2022-10-15T14:21:34.829Z,23.53
2022-10-15T14:24:17.265Z,23.53
2022-10-15T14:26:46.076Z,23.41
2022-10-15T14:29:28.272Z,23.02
2022-10-15T14:31:55.194Z,22.77
2022-10-15T14:34:42.137Z,22.82
2022-10-15T14:37:46.613Z,22.85
2022-10-15T14:40:22.359Z,22.78
2022-10-15T14:42:54.802Z,22.85
2022-10-15T14:45:31.786Z,23.03
2022-10-15T14:48:01.876Z,23.11
2022-10-15T14:50:33.190Z,23.13
2022-10-15T14:53:06.715Z,23.13
2022-10-15T14:55:41.885Z,22.98
2022-10-15T14:58:11.807Z,22.82
2022-10-15T15:00:49.424Z,22.86
2022-10-15T15:03:22.137Z,22.88
2022-10-15T15:05:52.787Z,22.75
2022-10-15T15:08:20.106Z,22.73
2022-10-15T15:13:27.161Z,22.73
2022-10-15T15:15:54.585Z,22.74
2022-10-15T15:18:22.597Z,22.70
2022-10-15T15:20:52.846Z,22.68
2022-10-15T15:23:26.754Z,22.58
2022-10-15T15:25:56.259Z,22.57
2022-10-15T15:28:27.568Z,22.48
2022-10-15T15:30:58.543Z,22.41
2022-10-15T15:33:27.308Z,22.20
2022-10-15T15:36:07.472Z,22.22
2022-10-15T15:41:12.138Z,22.07
2022-10-15T15:43:39.088Z,22.00
2022-10-15T15:46:08.244Z,21.98
2022-10-15T15:48:37.085Z,21.90
2022-10-15T15:51:16.698Z,21.85
2022-10-15T15:53:43.287Z,21.78
2022-10-15T15:56:09.827Z,21.69
2022-10-15T15:58:36.435Z,21.63
2022-10-15T16:01:03.418Z,21.58
2022-10-15T16:03:30.117Z,21.52
2022-10-15T16:05:56.779Z,21.47
2022-10-15T16:08:23.269Z,21.38
2022-10-15T16:10:50.100Z,21.27
2022-10-15T16:13:16.898Z,21.14
2022-10-15T16:15:43.592Z,21.10
2022-10-15T16:18:10.757Z,20.98
2022-10-15T16:20:39.758Z,20.94
2022-10-15T16:23:06.574Z,20.87
2022-10-15T16:25:33.508Z,20.76
2022-10-15T16:28:02.214Z,20.70
2022-10-15T16:30:29.520Z,20.63
2022-10-15T16:32:57.127Z,20.56
2022-10-15T16:35:23.704Z,20.48
2022-10-15T16:37:53.887Z,20.35
2022-10-15T16:40:20.975Z,20.30
2022-10-15T16:42:47.707Z,20.23
2022-10-15T16:45:14.514Z,20.13
2022-10-15T16:47:41.126Z,20.09
2022-10-15T16:50:08.717Z,20.00
2022-10-15T16:52:35.750Z,19.95
2022-10-15T16:55:02.546Z,19.94
2022-10-15T16:57:29.147Z,19.82
2022-10-15T16:59:55.808Z,19.80
2022-10-15T17:02:22.601Z,19.69
2022-10-15T17:04:51.873Z,19.57
2022-10-15T17:07:18.559Z,19.36
2022-10-15T17:12:16.625Z,19.33
2022-10-15T17:14:49.401Z,19.27
2022-10-15T17:17:17.496Z,19.21
2022-10-15T17:19:44.127Z,19.20
2022-10-15T17:22:11.283Z,19.16
2022-10-15T17:24:39.373Z,19.10
2022-10-15T17:27:06.012Z,19.08
2022-10-15T17:29:33.952Z,19.10
2022-10-15T17:32:02.534Z,19.06
2022-10-15T17:34:29.520Z,18.93
2022-10-15T17:36:56.424Z,18.76
2022-10-15T17:39:24.568Z,18.72
2022-10-15T17:41:54.415Z,18.75
2022-10-15T17:44:21.021Z,18.64
2022-10-15T17:49:19.119Z,18.61
2022-10-15T17:51:46.694Z,18.67
2022-10-15T17:54:13.344Z,18.58
2022-10-15T17:56:40.124Z,18.50
2022-10-15T17:59:09.229Z,18.34
2022-10-15T18:01:58.379Z,18.17
2022-10-15T18:04:25.328Z,18.01
2022-10-15T18:06:52.256Z,18.00
2022-10-15T18:09:20.567Z,17.98
2022-10-15T18:11:50.080Z,17.95
2022-10-15T18:14:17.334Z,17.94
2022-10-15T18:16:45.855Z,18.02
2022-10-15T18:19:12.627Z,18.08
2022-10-15T18:21:43.418Z,18.18
2022-10-15T18:24:12.294Z,18.22
2022-10-15T18:26:39.992Z,18.35
2022-10-15T18:29:07.246Z,18.33
2022-10-15T18:31:35.407Z,18.46
2022-10-15T18:34:02.049Z,18.52
2022-10-15T18:36:31.340Z,18.46
2022-10-15T18:38:59.985Z,18.50
2022-10-15T18:41:28.237Z,18.52
2022-10-15T18:44:04.881Z,18.41
2022-10-15T18:46:33.898Z,18.46
2022-10-15T18:49:01.422Z,18.37
2022-10-15T18:51:30.689Z,18.45
2022-10-15T18:53:57.312Z,18.43
2022-10-15T18:56:27.414Z,18.46
2022-10-15T18:58:55.856Z,18.40
2022-10-15T19:01:45.047Z,18.42
2022-10-15T19:04:16.244Z,18.31
2022-10-15T19:06:46.755Z,18.26
2022-10-15T19:09:16.418Z,18.17
2022-10-15T19:11:47.422Z,18.11
2022-10-15T19:14:17.239Z,18.00
2022-10-15T19:16:48.959Z,18.04
2022-10-15T19:19:21.356Z,18.14
2022-10-15T19:21:50.704Z,18.18
2022-10-15T19:24:19.977Z,18.21
2022-10-15T19:26:47.192Z,18.02
2022-10-15T19:29:14.952Z,17.93
2022-10-15T19:31:44.802Z,18.00
2022-10-15T19:34:11.559Z,17.97
2022-10-15T19:36:42.064Z,18.08
2022-10-15T19:39:17.049Z,18.04
2022-10-15T19:41:44.622Z,18.01
2022-10-15T19:44:13.912Z,18.06
2022-10-15T19:46:42.912Z,18.07
2022-10-15T19:49:12.767Z,18.08
2022-10-15T19:51:40.987Z,17.99
2022-10-15T19:54:09.426Z,18.12
2022-10-15T19:56:36.134Z,18.15
2022-10-15T19:59:07.205Z,18.20
2022-10-15T20:01:34.595Z,18.17
2022-10-15T20:04:07.155Z,18.06
2022-10-15T20:06:38.318Z,18.10
2022-10-15T20:09:07.520Z,17.97
2022-10-15T20:11:34.698Z,17.88
2022-10-15T20:14:01.725Z,17.78
2022-10-15T20:16:32.399Z,17.83
2022-10-15T20:19:05.678Z,17.71
2022-10-15T20:21:32.669Z,17.75
2022-10-15T20:24:04.633Z,17.44
2022-10-15T20:26:32.222Z,17.39
2022-10-15T20:28:58.974Z,17.50
2022-10-15T20:31:32.019Z,17.52
2022-10-15T20:33:58.980Z,17.56
2022-10-15T20:36:27.407Z,17.56
2022-10-15T20:38:54.874Z,17.65
2022-10-15T20:41:21.966Z,17.63
2022-10-15T20:43:54.414Z,17.66
2022-10-15T20:46:27.032Z,17.53
2022-10-15T20:48:56.107Z,17.55
2022-10-15T20:51:28.570Z,17.59
2022-10-15T20:53:57.678Z,17.66
2022-10-15T20:56:24.323Z,17.69
2022-10-15T20:58:51.198Z,17.72
2022-10-15T21:01:17.783Z,17.66
2022-10-15T21:03:45.772Z,17.68
2022-10-15T21:06:12.378Z,17.61
2022-10-15T21:08:39.190Z,17.46
2022-10-15T21:11:08.602Z,17.43
2022-10-15T21:13:36.237Z,17.42
2022-10-15T21:16:05.954Z,17.24
2022-10-15T21:18:34.561Z,17.27
2022-10-15T21:21:09.220Z,17.10
2022-10-15T21:23:36.821Z,17.12
2022-10-15T21:26:16.415Z,17.12
2022-10-15T21:28:43.959Z,17.07
2022-10-15T21:31:17.549Z,17.00
2022-10-15T21:33:45.039Z,16.91
2022-10-15T21:36:27.498Z,16.84
2022-10-15T21:38:59.347Z,16.79
2022-10-15T21:41:28.479Z,16.72
2022-10-15T21:43:55.135Z,16.71
2022-10-15T21:46:22.203Z,16.65
2022-10-15T21:48:49.539Z,16.62
2022-10-15T21:51:19.671Z,16.55
2022-10-15T21:53:47.030Z,16.51
2022-10-15T21:56:14.454Z,16.48
2022-10-15T21:58:43.004Z,16.39
2022-10-15T22:01:19.556Z,16.39
2022-10-15T22:03:47.297Z,16.35
2022-10-15T22:06:14.178Z,16.35
2022-10-15T22:08:43.772Z,16.20
2022-10-15T22:11:16.905Z,16.27
2022-10-15T22:13:45.928Z,16.16
2022-10-15T22:16:13.589Z,16.16
2022-10-15T22:18:41.060Z,16.11
2022-10-15T22:21:18.490Z,16.05
2022-10-15T22:23:47.199Z,16.08
2022-10-15T22:26:14.328Z,15.99
2022-10-15T22:28:41.936Z,15.86
2022-10-15T22:31:11.480Z,15.93
2022-10-15T22:33:39.337Z,15.97
2022-10-15T22:36:13.344Z,16.01
2022-10-15T22:38:41.260Z,16.03
2022-10-15T22:41:09.726Z,15.94
2022-10-15T22:43:37.112Z,15.94
2022-10-15T22:46:04.999Z,16.07
2022-10-15T22:48:36.855Z,16.19
2022-10-15T22:51:05.327Z,16.26
2022-10-15T22:53:32.586Z,16.30
2022-10-15T22:56:01.608Z,16.34
2022-10-15T22:58:30.430Z,16.28
2022-10-15T23:01:07.276Z,16.43
2022-10-15T23:03:34.263Z,16.39
2022-10-15T23:06:00.867Z,16.48
2022-10-15T23:08:27.593Z,16.54
2022-10-15T23:10:54.258Z,16.48
2022-10-15T23:13:20.943Z,16.39
2022-10-15T23:15:48.090Z,16.49
2022-10-15T23:18:14.716Z,16.49
2022-10-15T23:20:41.358Z,16.40
2022-10-15T23:23:07.850Z,16.37
2022-10-15T23:25:38.385Z,16.23
2022-10-15T23:28:05.428Z,16.35
2022-10-15T23:30:32.102Z,16.36
2022-10-15T23:33:02.306Z,16.51
2022-10-15T23:35:29.030Z,16.49
2022-10-15T23:37:55.682Z,16.47
2022-10-15T23:40:22.428Z,16.55
2022-10-15T23:42:49.026Z,16.50
2022-10-15T23:45:15.625Z,16.41
2022-10-15T23:47:42.432Z,16.45
2022-10-15T23:50:09.456Z,16.54
2022-10-15T23:52:36.022Z,16.42
2022-10-15T23:55:02.741Z,16.51
2022-10-15T23:57:29.526Z,16.50
2022-10-15T23:59:59.123Z,16.56
